Time;durP1;ratioP1;P1;durP2;ratioP2;P2;SDS_P1;SDS_P2;PMS_P1;PMS_P2;Temp;Humidity;BMP_temperature;BMP_pressure;BME280_temperature;BME280_humidity;BME280_pressure;Samples;Min_cycle;Max_cycle;Signal;HPM_P1;HPM_P2
2022/06/11 00:01:48;;;;;;;4.83;4.30;;;20.40;60.60;;;;;;2615786;47;20426;-77
2022/06/11 00:07:36;;;;;;;4.30;3.90;;;20.30;67.70;;;;;;2616237;31;20873;-76
2022/06/11 00:13:23;;;;;;;6.63;3.83;;;20.20;81.20;;;;;;2615062;39;20597;-77
2022/06/11 00:19:46;;;;;;;4.73;3.87;;;20.20;80.20;;;;;;2616366;54;20166;-78
2022/06/11 00:25:34;;;;;;;4.50;4.10;;;20.40;78.70;;;;;;2616052;54;21136;-77
2022/06/11 00:31:22;;;;;;;4.77;4.00;;;20.40;77.30;;;;;;2614792;54;20450;-77
2022/06/11 00:37:11;;;;;;;4.90;4.40;;;20.20;82.40;;;;;;2615379;47;20235;-77
2022/06/11 00:43:01;;;;;;;6.63;4.17;;;20.20;86.80;;;;;;2615844;47;20460;-77
2022/06/11 00:48:48;;;;;;;6.80;3.93;;;20.00;93.70;;;;;;2615377;47;20392;-78
2022/06/11 00:54:40;;;;;;;7.10;5.20;;;20.10;95.10;;;;;;2616172;47;20412;-77
2022/06/11 01:46:51;;;;;;;5.10;4.70;;;19.80;99.90;;;;;;2615806;46;20962;-75
2022/06/11 01:53:21;;;;;;;7.67;4.33;;;19.60;99.90;;;;;;2616113;54;20446;-76
2022/06/11 02:03:02;;;;;;;8.13;4.03;;;19.50;99.90;;;;;;2615880;47;20412;-77
2022/06/11 02:09:05;;;;;;;4.97;3.90;;;19.40;99.90;;;;;;2616417;39;20879;-77
2022/06/11 02:18:35;;;;;;;5.70;4.90;;;19.10;99.90;;;;;;2617133;54;21062;-77
2022/06/11 02:31:37;;;;;;;5.13;4.27;;;18.90;99.90;;;;;;2617896;54;20430;-76
2022/06/11 02:37:45;;;;;;;6.77;4.77;;;18.70;99.90;;;;;;2618675;54;20415;-77
2022/06/11 02:43:53;;;;;;;8.47;4.97;;;18.40;99.90;;;;;;2617227;54;20513;-77
2022/06/11 02:50:00;;;;;;;6.73;4.23;;;18.10;99.90;;;;;;2617446;54;20424;-77
2022/06/11 02:56:06;;;;;;;10.03;5.83;;;17.90;99.90;;;;;;2617911;54;20408;-77
2022/06/11 03:02:13;;;;;;;6.60;4.90;;;17.70;99.90;;;;;;2618873;54;21124;-80
2022/06/11 03:11:42;;;;;;;10.10;5.20;;;17.50;99.90;;;;;;2620005;47;20420;-81
2022/06/11 03:17:31;;;;;;;9.07;4.97;;;17.50;99.90;;;;;;2620401;54;20409;-82
2022/06/11 03:41:55;;;;;;;8.37;5.70;;;17.00;99.90;;;;;;2621469;54;20423;-80
2022/06/11 03:48:03;;;;;;;11.27;5.73;;;17.10;99.90;;;;;;2621673;54;20393;-80
2022/06/11 03:54:11;;;;;;;6.20;5.60;;;16.90;99.90;;;;;;2623940;54;20482;-80
2022/06/11 04:14:46;;;;;;;10.77;5.50;;;17.20;99.90;;;;;;2623586;54;20421;-79
2022/06/11 04:31:40;;;;;;;8.50;6.07;;;17.30;99.90;;;;;;2622173;46;20536;-80
2022/06/11 04:37:47;;;;;;;9.03;5.13;;;17.40;99.90;;;;;;2624228;39;20849;-81
2022/06/11 04:43:53;;;;;;;5.90;4.40;;;17.80;99.90;;;;;;2624624;54;20447;-81
2022/06/11 04:50:03;;;;;;;8.77;4.53;;;18.40;99.90;;;;;;2624081;54;20415;-81
2022/06/11 04:56:12;;;;;;;7.90;4.60;;;19.20;99.90;;;;;;2624701;54;20478;-80
2022/06/11 05:02:22;;;;;;;4.87;4.10;;;20.10;99.90;;;;;;2624271;54;20450;-79
2022/06/11 05:08:29;;;;;;;10.17;4.60;;;20.60;99.90;;;;;;2626193;54;20418;-82
2022/06/11 05:14:36;;;;;;;9.03;4.77;;;21.10;99.90;;;;;;2623939;39;20497;-81
2022/06/11 05:25:15;;;;;;;6.93;4.33;;;21.30;99.90;;;;;;2618817;54;20460;-78
2022/06/11 05:31:59;;;;;;;9.20;4.80;;;21.30;99.90;;;;;;2615572;54;20457;-81
2022/06/11 05:34:26;;;;;;;3.87;3.53;;;21.30;99.90;;;;;;2617520;54;20438;-81
2022/06/11 05:40:17;;;;;;;7.13;3.40;;;21.60;98.90;;;;;;2619431;47;20584;-78
2022/06/11 05:46:10;;;;;;;5.97;4.70;;;21.60;96.20;;;;;;2618031;54;20437;-80
2022/06/11 05:52:01;;;;;;;5.23;4.73;;;20.50;99.90;;;;;;2620052;47;20560;-80
2022/06/11 06:08:48;;;;;;;4.40;4.00;;;19.80;99.90;;;;;;2617366;39;20861;-80
2022/06/11 06:25:26;;;;;;;6.00;4.63;;;19.90;99.90;;;;;;2616470;54;20548;-81
2022/06/11 06:31:33;;;;;;;4.47;4.07;;;20.10;99.90;;;;;;2618372;54;20490;-80
2022/06/11 06:37:40;;;;;;;4.50;3.80;;;20.00;99.90;;;;;;2619326;54;20435;-81
2022/06/11 06:43:48;;;;;;;12.00;4.40;;;19.90;99.90;;;;;;2619374;54;20414;-81
2022/06/11 06:49:54;;;;;;;7.43;3.83;;;20.20;99.90;;;;;;2620413;39;20798;-80
2022/06/11 06:56:01;;;;;;;4.00;3.60;;;20.50;99.90;;;;;;2621011;54;20211;-80
2022/06/11 07:02:10;;;;;;;5.80;3.40;;;20.60;99.90;;;;;;2619039;54;20155;-81
2022/06/11 07:08:18;;;;;;;5.93;4.33;;;20.80;99.00;;;;;;2619332;54;20395;-80
2022/06/11 07:14:25;;;;;;;6.17;3.40;;;21.50;93.10;;;;;;2620511;54;20541;-81
2022/06/11 07:20:34;;;;;;;4.80;3.60;;;21.20;88.50;;;;;;2622303;54;20422;-81
2022/06/11 07:26:46;;;;;;;3.87;3.20;;;21.50;79.80;;;;;;2619136;54;20473;-80
2022/06/11 07:40:04;;;;;;;3.63;3.27;;;22.00;69.20;;;;;;2621542;54;20416;-79
2022/06/11 07:46:10;;;;;;;3.90;3.50;;;22.00;78.20;;;;;;2620687;54;20456;-80
2022/06/11 07:52:17;;;;;;;4.43;3.60;;;23.20;47.10;;;;;;2621747;54;20245;-80
2022/06/11 07:58:27;;;;;;;3.50;3.20;;;22.90;49.20;;;;;;2621443;54;20167;-79
2022/06/11 08:04:34;;;;;;;4.33;4.03;;;23.60;40.40;;;;;;2621512;54;20446;-79
2022/06/11 08:10:42;;;;;;;5.47;3.67;;;24.00;34.80;;;;;;2624193;54;20157;-80
2022/06/11 08:16:49;;;;;;;5.03;3.80;;;25.20;19.60;;;;;;2622171;54;20403;-80
2022/06/11 08:22:57;;;;;;;4.57;3.30;;;25.40;16.70;;;;;;2623595;54;20161;-79
2022/06/11 08:32:46;;;;;;;5.07;3.90;;;24.10;24.90;;;;;;2620182;54;20436;-81
2022/06/11 08:38:53;;;;;;;7.13;3.77;;;23.20;29.80;;;;;;2621592;54;20441;-79
2022/06/11 08:45:04;;;;;;;7.03;4.10;;;22.90;37.90;;;;;;2618742;54;20175;-81
2022/06/11 08:51:22;;;;;;;5.07;3.60;;;22.90;33.60;;;;;;2615829;54;21320;-79
2022/06/11 08:57:56;;;;;;;5.10;4.27;;;23.20;32.90;;;;;;2616565;54;20940;-79
2022/06/11 09:32:14;;;;;;;6.20;4.97;;;24.50;22.30;;;;;;2613611;54;20455;-77
2022/06/11 09:53:36;;;;;;;6.60;6.00;;;23.70;24.50;;;;;;2614481;54;20426;-78
2022/06/11 10:03:35;;;;;;;9.60;7.27;;;24.00;25.30;;;;;;2616250;31;20951;-80
2022/06/11 10:45:02;;;;;;;9.30;7.00;;;27.50;8.20;;;;;;2615558;47;20481;-79
2022/06/11 10:50:51;;;;;;;7.00;6.40;;;26.90;8.80;;;;;;2615723;46;21010;-78
2022/06/11 11:14:46;;;;;;;8.53;6.40;;;24.80;13.90;;;;;;2617915;54;20501;-78
2022/06/11 11:20:56;;;;;;;7.00;6.30;;;24.70;16.10;;;;;;2615629;54;21132;-79
2022/06/11 11:41:37;;;;;;;6.23;5.77;;;24.70;12.20;;;;;;2615643;54;20438;-77
2022/06/11 11:47:43;;;;;;;6.50;5.87;;;25.00;13.90;;;;;;2615654;54;20443;-79
2022/06/11 12:07:59;;;;;;;6.30;5.27;;;26.50;7.60;;;;;;2615816;54;20437;-79
2022/06/11 12:46:03;;;;;;;6.50;4.77;;;26.50;6.70;;;;;;2615845;39;21148;-78
2022/06/11 12:52:24;;;;;;;4.27;3.87;;;26.60;6.70;;;;;;2616117;54;20430;-78
2022/06/11 12:58:37;;;;;;;5.70;3.73;;;26.10;4.40;;;;;;2615715;54;20426;-78
2022/06/11 13:19:36;;;;;;;4.07;3.60;;;25.80;4.10;;;;;;2615852;54;20407;-79
2022/06/11 13:33:36;;;;;;;3.97;3.67;;;26.10;3.60;;;;;;2616567;39;20939;-80
2022/06/11 13:44:23;;;;;;;3.97;3.50;;;26.40;2.60;;;;;;2617341;31;20859;-79
2022/06/11 13:50:35;;;;;;;3.00;2.80;;;25.90;1.70;;;;;;2615770;54;20488;-80
2022/06/11 14:11:02;;;;;;;3.70;3.40;;;27.40;1.00;;;;;;2617372;54;20472;-79
2022/06/11 14:17:39;;;;;;;4.57;3.13;;;27.20;1.00;;;;;;2616956;54;21286;-79
2022/06/11 14:23:51;;;;;;;3.67;3.07;;;26.70;1.00;;;;;;2617839;54;20452;-80
2022/06/11 14:34:09;;;;;;;3.43;3.07;;;26.60;1.00;;;;;;2617205;54;20612;-81
2022/06/11 14:40:27;;;;;;;3.17;2.97;;;26.90;1.00;;;;;;2615608;54;20419;-80
2022/06/11 14:50:00;;;;;;;3.57;3.30;;;27.10;1.00;;;;;;2617392;39;20783;-79
2022/06/11 14:55:51;;;;;;;3.07;2.80;;;27.10;1.00;;;;;;2616789;47;20465;-81
2022/06/11 15:11:59;;;;;;;3.07;2.83;;;26.90;1.00;;;;;;2617716;46;20612;-74
2022/06/11 15:14:37;;;;;;;2.90;2.70;;;27.50;1.00;;;;;;2611403;54;20419;-76
2022/06/11 15:17:26;;;;;;;3.20;3.00;;;27.20;1.00;;;;;;2695728;36;21397;-75
2022/06/11 15:19:57;;;;;;;2.63;2.53;;;26.80;1.00;;;;;;2611185;54;20396;-75
2022/06/11 15:22:33;;;;;;;6.53;2.93;;;27.00;1.00;;;;;;2645219;36;20582;-77
2022/06/11 15:25:17;;;;;;;3.83;3.23;;;27.20;1.00;;;;;;2628660;36;21073;-75
2022/06/11 15:27:54;;;;;;;2.80;2.60;;;27.10;1.00;;;;;;2613380;46;20467;-76
2022/06/11 15:48:38;;;;;;;4.33;3.40;;;28.20;1.00;;;;;;2676514;36;20523;-74
2022/06/11 15:51:24;;;;;;;3.97;3.10;;;28.40;1.00;;;;;;2630257;36;20460;-76
2022/06/11 16:00:58;;;;;;;3.47;3.17;;;26.10;1.00;;;;;;2616868;54;20406;-76
2022/06/11 16:21:53;;;;;;;4.03;3.60;;;26.40;1.00;;;;;;2612964;54;21069;-78
2022/06/11 16:28:02;;;;;;;6.93;3.10;;;26.50;1.00;;;;;;2614894;54;20406;-78
2022/06/11 16:34:13;;;;;;;5.00;3.23;;;26.90;1.00;;;;;;2616485;54;20406;-78
2022/06/11 16:40:38;;;;;;;8.23;3.90;;;26.20;1.00;;;;;;2615837;54;20444;-78
2022/06/11 16:46:48;;;;;;;3.30;3.00;;;26.50;1.00;;;;;;2617504;54;20390;-76
2022/06/11 16:56:46;;;;;;;9.10;3.67;;;26.50;1.00;;;;;;2614995;54;20446;-76
2022/06/11 17:23:44;;;;;;;8.27;4.03;;;26.10;1.00;;;;;;2611788;54;20410;-76
2022/06/11 17:29:51;;;;;;;13.90;4.73;;;25.50;1.00;;;;;;2609939;54;20419;-75
2022/06/11 17:36:00;;;;;;;3.20;2.90;;;25.40;1.00;;;;;;2609310;54;20447;-76
2022/06/11 17:42:09;;;;;;;5.37;3.87;;;24.90;1.00;;;;;;2611666;54;20467;-77
2022/06/11 17:48:15;;;;;;;4.27;3.20;;;24.70;1.00;;;;;;2609891;54;20432;-77
2022/06/11 17:54:30;;;;;;;8.90;4.83;;;24.50;1.00;;;;;;2612307;54;20177;-76
2022/06/11 17:57:34;;;;;;;4.87;3.80;;;24.50;1.00;;;;;;2611571;54;20445;-77
2022/06/11 18:03:22;;;;;;;6.93;4.40;;;24.60;1.00;;;;;;2610292;54;21033;-77
2022/06/11 18:09:10;;;;;;;5.47;3.63;;;24.80;1.00;;;;;;2609517;54;20434;-77
2022/06/11 18:14:58;;;;;;;3.40;3.10;;;24.70;1.00;;;;;;2612554;47;20173;-76
2022/06/11 18:20:46;;;;;;;2.97;2.77;;;24.40;1.00;;;;;;2613630;31;20660;-75
2022/06/11 18:26:52;;;;;;;7.60;4.33;;;24.30;1.00;;;;;;2613034;54;20422;-76
2022/06/11 18:32:40;;;;;;;4.43;4.07;;;24.30;1.30;;;;;;2614629;54;20170;-76
2022/06/11 18:38:28;;;;;;;4.80;3.53;;;24.40;1.00;;;;;;2613985;47;20438;-76
2022/06/11 18:44:17;;;;;;;4.50;3.30;;;24.30;1.30;;;;;;2614950;54;20968;-77
2022/06/11 18:50:06;;;;;;;6.07;3.47;;;24.30;1.20;;;;;;2614709;54;20435;-76
2022/06/11 19:10:29;;;;;;;6.40;3.10;;;23.90;3.10;;;;;;2611615;39;20935;-77
2022/06/11 19:16:17;;;;;;;4.00;3.17;;;23.70;3.40;;;;;;2608911;54;20503;-76
2022/06/11 19:22:04;;;;;;;5.53;3.87;;;23.40;3.50;;;;;;2613316;39;20827;-76
2022/06/11 19:27:52;;;;;;;5.23;3.33;;;23.30;4.40;;;;;;2612800;51;20463;-77
2022/06/11 19:33:40;;;;;;;4.30;2.97;;;23.00;5.10;;;;;;2612956;54;20400;-76
2022/06/11 19:50:19;;;;;;;6.13;3.77;;;22.80;6.70;;;;;;2613571;54;20448;-77
2022/06/11 19:56:29;;;;;;;4.47;3.50;;;22.50;8.30;;;;;;2612666;54;20450;-76
2022/06/11 19:58:56;;;;;;;4.33;3.40;;;22.30;9.60;;;;;;2612239;54;20499;-76
2022/06/11 20:04:43;;;;;;;7.00;4.37;;;22.30;9.10;;;;;;2612414;39;20817;-77
2022/06/11 20:10:32;;;;;;;4.33;3.30;;;22.20;10.00;;;;;;2612407;46;20205;-77
2022/06/11 20:20:05;;;;;;;6.70;4.03;;;22.10;12.20;;;;;;2612835;54;20467;-76
2022/06/11 20:26:13;;;;;;;8.50;4.90;;;21.90;13.30;;;;;;2613990;54;20452;-76
2022/06/11 20:32:22;;;;;;;8.30;4.30;;;21.60;14.90;;;;;;2613676;54;20419;-76
2022/06/11 20:38:30;;;;;;;10.40;5.27;;;21.60;16.30;;;;;;2614936;54;20560;-75
2022/06/11 20:44:37;;;;;;;7.77;5.20;;;21.40;16.20;;;;;;2614625;54;20431;-76
2022/06/11 20:50:45;;;;;;;8.17;5.60;;;21.60;16.60;;;;;;2615208;39;20680;-76
2022/06/11 20:56:52;;;;;;;12.70;5.93;;;21.60;16.30;;;;;;2614555;39;21010;-76
2022/06/11 21:10:13;;;;;;;8.23;6.30;;;21.30;20.20;;;;;;2614927;39;20776;-76
2022/06/11 21:16:19;;;;;;;7.13;6.53;;;21.30;20.20;;;;;;2614872;54;20447;-73
2022/06/11 21:22:30;;;;;;;8.73;7.03;;;21.30;18.60;;;;;;2614471;54;20402;-77
2022/06/11 21:28:36;;;;;;;9.70;5.80;;;21.50;18.10;;;;;;2614614;54;20412;-77
2022/06/11 21:34:43;;;;;;;12.40;6.07;;;21.20;17.20;;;;;;2613988;54;20430;-77
2022/06/11 21:47:18;;;;;;;11.67;6.60;;;21.00;14.60;;;;;;2616117;54;20411;-78
2022/06/11 21:53:24;;;;;;;10.90;6.27;;;20.80;15.00;;;;;;2616841;39;20785;-74
2022/06/11 21:59:35;;;;;;;8.00;5.80;;;20.80;15.00;;;;;;2616443;54;20173;-75
2022/06/11 22:12:58;;;;;;;6.67;5.37;;;20.20;14.70;;;;;;2613670;54;20419;-74
2022/06/11 22:19:07;;;;;;;8.93;5.83;;;20.10;15.40;;;;;;2613198;39;20553;-75
2022/06/11 22:25:19;;;;;;;7.90;5.93;;;19.70;17.50;;;;;;2612691;54;20971;-77
2022/06/11 22:31:28;;;;;;;12.23;6.33;;;19.50;18.40;;;;;;2613426;54;21776;-77
2022/06/11 22:37:34;;;;;;;7.33;5.60;;;19.20;21.40;;;;;;2614001;54;20509;-77
2022/06/11 22:43:41;;;;;;;10.20;5.20;;;19.20;24.40;;;;;;2614412;54;20538;-77
2022/06/11 22:49:48;;;;;;;8.07;6.20;;;19.00;25.80;;;;;;2616062;54;20989;-76
2022/06/11 22:55:55;;;;;;;7.73;6.57;;;18.70;32.60;;;;;;2614142;54;20238;-77
2022/06/11 23:02:02;;;;;;;16.47;6.97;;;18.60;44.30;;;;;;2614217;54;20189;-76
2022/06/11 23:08:08;;;;;;;8.07;7.27;;;18.30;57.40;;;;;;2614934;54;20764;-76
2022/06/11 23:14:15;;;;;;;11.63;7.50;;;18.20;70.90;;;;;;2615793;54;20165;-76
2022/06/11 23:20:23;;;;;;;7.20;6.60;;;18.00;83.50;;;;;;2613979;39;20543;-74
2022/06/11 23:26:31;;;;;;;9.60;6.77;;;17.90;92.20;;;;;;2615236;54;20429;-74
2022/06/11 23:32:41;;;;;;;12.37;7.47;;;17.80;91.90;;;;;;2614913;54;20418;-74
2022/06/11 23:38:48;;;;;;;11.53;7.90;;;17.50;97.40;;;;;;2614781;54;20441;-73
2022/06/11 23:51:24;;;;;;;7.50;6.73;;;17.80;90.70;;;;;;2614146;54;20430;-77
2022/06/11 23:57:31;;;;;;;11.27;6.50;;;17.50;93.20;;;;;;2614352;54;20462;-77
